sensor_id;sensor_type;location;lat;lon;timestamp;temperature;humidity
8709;DHT22;4391;48.678;9.280;2022-12-18T00:01:59;-9.50;75.40
8709;DHT22;4391;48.678;9.280;2022-12-18T00:04:26;-9.50;75.40
8709;DHT22;4391;48.678;9.280;2022-12-18T00:06:55;-9.50;78.90
8709;DHT22;4391;48.678;9.280;2022-12-18T00:09:22;-9.60;70.40
8709;DHT22;4391;48.678;9.280;2022-12-18T00:11:49;-9.60;66.60
8709;DHT22;4391;48.678;9.280;2022-12-18T00:14:16;-9.70;65.50
8709;DHT22;4391;48.678;9.280;2022-12-18T00:16:43;-9.70;67.90
8709;DHT22;4391;48.678;9.280;2022-12-18T00:19:10;-9.80;66.60
8709;DHT22;4391;48.678;9.280;2022-12-18T00:21:37;-9.90;66.70
8709;DHT22;4391;48.678;9.280;2022-12-18T00:24:06;-10.00;72.00
8709;DHT22;4391;48.678;9.280;2022-12-18T00:26:35;-10.20;71.30
8709;DHT22;4391;48.678;9.280;2022-12-18T00:29:05;-10.30;47.00
8709;DHT22;4391;48.678;9.280;2022-12-18T00:31:32;-10.50;15.00
8709;DHT22;4391;48.678;9.280;2022-12-18T00:33:59;-10.70;1.00
8709;DHT22;4391;48.678;9.280;2022-12-18T00:36:28;-10.90;3.10
8709;DHT22;4391;48.678;9.280;2022-12-18T00:38:56;-11.00;6.60
8709;DHT22;4391;48.678;9.280;2022-12-18T00:41:25;-11.20;12.90
8709;DHT22;4391;48.678;9.280;2022-12-18T00:44:10;-11.30;18.80
8709;DHT22;4391;48.678;9.280;2022-12-18T00:46:37;-11.40;23.80
8709;DHT22;4391;48.678;9.280;2022-12-18T00:49:04;-11.40;33.90
8709;DHT22;4391;48.678;9.280;2022-12-18T00:51:31;-11.50;39.20
8709;DHT22;4391;48.678;9.280;2022-12-18T00:53:58;-11.50;41.20
8709;DHT22;4391;48.678;9.280;2022-12-18T00:56:26;-11.50;38.10
8709;DHT22;4391;48.678;9.280;2022-12-18T00:58:53;-11.50;41.20
8709;DHT22;4391;48.678;9.280;2022-12-18T01:01:20;-11.60;41.10
8709;DHT22;4391;48.678;9.280;2022-12-18T01:03:47;-11.70;48.80
8709;DHT22;4391;48.678;9.280;2022-12-18T01:06:15;-11.70;52.30
8709;DHT22;4391;48.678;9.280;2022-12-18T01:08:42;-11.80;57.40
8709;DHT22;4391;48.678;9.280;2022-12-18T01:11:11;-11.70;58.10
8709;DHT22;4391;48.678;9.280;2022-12-18T01:13:40;-11.80;56.70
8709;DHT22;4391;48.678;9.280;2022-12-18T01:16:07;-11.80;57.30
8709;DHT22;4391;48.678;9.280;2022-12-18T01:18:34;-11.80;57.10
8709;DHT22;4391;48.678;9.280;2022-12-18T01:21:06;-11.90;53.70
8709;DHT22;4391;48.678;9.280;2022-12-18T01:23:33;-12.00;56.20
8709;DHT22;4391;48.678;9.280;2022-12-18T01:26:04;-12.00;60.00
8709;DHT22;4391;48.678;9.280;2022-12-18T01:28:31;-12.00;71.90
8709;DHT22;4391;48.678;9.280;2022-12-18T01:31:11;-12.00;74.60
8709;DHT22;4391;48.678;9.280;2022-12-18T01:33:38;-12.00;74.70
8709;DHT22;4391;48.678;9.280;2022-12-18T01:36:05;-12.10;75.20
8709;DHT22;4391;48.678;9.280;2022-12-18T01:38:32;-12.00;78.90
8709;DHT22;4391;48.678;9.280;2022-12-18T01:40:59;-12.10;79.00
8709;DHT22;4391;48.678;9.280;2022-12-18T01:43:42;-12.10;80.90
8709;DHT22;4391;48.678;9.280;2022-12-18T01:46:10;-12.20;83.90
8709;DHT22;4391;48.678;9.280;2022-12-18T01:48:37;-12.10;86.50
8709;DHT22;4391;48.678;9.280;2022-12-18T01:53:36;-12.20;87.50
8709;DHT22;4391;48.678;9.280;2022-12-18T01:56:03;-12.20;88.00
8709;DHT22;4391;48.678;9.280;2022-12-18T01:58:39;-12.10;89.00
8709;DHT22;4391;48.678;9.280;2022-12-18T02:01:10;-12.10;90.10
8709;DHT22;4391;48.678;9.280;2022-12-18T02:03:37;-12.00;90.00
8709;DHT22;4391;48.678;9.280;2022-12-18T02:06:10;-11.90;90.00
8709;DHT22;4391;48.678;9.280;2022-12-18T02:08:42;-11.80;87.30
8709;DHT22;4391;48.678;9.280;2022-12-18T02:11:21;-11.80;85.80
8709;DHT22;4391;48.678;9.280;2022-12-18T02:13:53;-11.70;85.60
8709;DHT22;4391;48.678;9.280;2022-12-18T02:16:25;-11.70;83.40
8709;DHT22;4391;48.678;9.280;2022-12-18T02:18:57;-11.60;84.60
8709;DHT22;4391;48.678;9.280;2022-12-18T02:21:31;-11.60;87.20
8709;DHT22;4391;48.678;9.280;2022-12-18T02:24:12;-11.50;85.90
8709;DHT22;4391;48.678;9.280;2022-12-18T02:26:45;-11.50;82.00
8709;DHT22;4391;48.678;9.280;2022-12-18T02:29:16;-11.50;82.00
8709;DHT22;4391;48.678;9.280;2022-12-18T02:31:51;-11.50;81.70
8709;DHT22;4391;48.678;9.280;2022-12-18T02:34:20;-11.50;79.80
8709;DHT22;4391;48.678;9.280;2022-12-18T02:36:49;-11.50;78.00
8709;DHT22;4391;48.678;9.280;2022-12-18T02:39:17;-11.50;79.30
8709;DHT22;4391;48.678;9.280;2022-12-18T02:41:48;-11.50;79.00
8709;DHT22;4391;48.678;9.280;2022-12-18T02:44:15;-11.60;78.70
8709;DHT22;4391;48.678;9.280;2022-12-18T02:46:43;-11.60;80.50
8709;DHT22;4391;48.678;9.280;2022-12-18T02:49:20;-11.60;80.10
8709;DHT22;4391;48.678;9.280;2022-12-18T02:51:52;-11.70;78.50
8709;DHT22;4391;48.678;9.280;2022-12-18T02:54:44;-11.70;75.80
8709;DHT22;4391;48.678;9.280;2022-12-18T02:57:19;-11.70;77.40
8709;DHT22;4391;48.678;9.280;2022-12-18T02:59:51;-11.70;74.10
8709;DHT22;4391;48.678;9.280;2022-12-18T03:02:26;-11.60;64.40
8709;DHT22;4391;48.678;9.280;2022-12-18T03:05:00;-11.70;57.60
8709;DHT22;4391;48.678;9.280;2022-12-18T03:07:35;-11.70;57.30
8709;DHT22;4391;48.678;9.280;2022-12-18T03:10:06;-11.70;54.70
8709;DHT22;4391;48.678;9.280;2022-12-18T03:12:39;-11.80;55.80
8709;DHT22;4391;48.678;9.280;2022-12-18T03:15:11;-11.70;61.20
8709;DHT22;4391;48.678;9.280;2022-12-18T03:17:43;-11.70;64.30
8709;DHT22;4391;48.678;9.280;2022-12-18T03:20:14;-11.70;63.20
8709;DHT22;4391;48.678;9.280;2022-12-18T03:22:43;-11.60;64.50
8709;DHT22;4391;48.678;9.280;2022-12-18T03:25:13;-11.60;55.50
8709;DHT22;4391;48.678;9.280;2022-12-18T03:27:44;-11.60;51.50
8709;DHT22;4391;48.678;9.280;2022-12-18T03:30:13;-11.70;44.90
8709;DHT22;4391;48.678;9.280;2022-12-18T03:32:44;-11.60;40.20
8709;DHT22;4391;48.678;9.280;2022-12-18T03:35:15;-11.70;36.80
8709;DHT22;4391;48.678;9.280;2022-12-18T03:37:43;-11.80;32.30
8709;DHT22;4391;48.678;9.280;2022-12-18T03:40:11;-11.80;29.50
8709;DHT22;4391;48.678;9.280;2022-12-18T03:42:45;-11.90;33.70
8709;DHT22;4391;48.678;9.280;2022-12-18T03:45:19;-12.00;42.80
8709;DHT22;4391;48.678;9.280;2022-12-18T03:47:55;-12.10;50.20
8709;DHT22;4391;48.678;9.280;2022-12-18T03:50:29;-12.10;57.30
8709;DHT22;4391;48.678;9.280;2022-12-18T03:53:10;-12.20;64.80
8709;DHT22;4391;48.678;9.280;2022-12-18T03:55:42;-12.20;72.90
8709;DHT22;4391;48.678;9.280;2022-12-18T03:58:12;-12.20;71.60
8709;DHT22;4391;48.678;9.280;2022-12-18T04:00:40;-12.20;66.70
8709;DHT22;4391;48.678;9.280;2022-12-18T04:03:08;-12.20;60.30
8709;DHT22;4391;48.678;9.280;2022-12-18T04:05:36;-12.10;55.00
8709;DHT22;4391;48.678;9.280;2022-12-18T04:08:04;-12.30;46.40
8709;DHT22;4391;48.678;9.280;2022-12-18T04:10:31;-12.30;43.40
8709;DHT22;4391;48.678;9.280;2022-12-18T04:12:58;-12.40;46.40
8709;DHT22;4391;48.678;9.280;2022-12-18T04:15:26;-12.30;52.40
8709;DHT22;4391;48.678;9.280;2022-12-18T04:17:53;-12.30;49.30
8709;DHT22;4391;48.678;9.280;2022-12-18T04:20:20;-12.30;40.90
8709;DHT22;4391;48.678;9.280;2022-12-18T04:22:47;-12.40;38.40
8709;DHT22;4391;48.678;9.280;2022-12-18T04:25:14;-12.40;35.00
8709;DHT22;4391;48.678;9.280;2022-12-18T04:27:41;-12.30;38.80
8709;DHT22;4391;48.678;9.280;2022-12-18T04:30:08;-12.30;35.90
8709;DHT22;4391;48.678;9.280;2022-12-18T04:32:36;-12.40;33.10
8709;DHT22;4391;48.678;9.280;2022-12-18T04:35:04;-12.30;34.60
8709;DHT22;4391;48.678;9.280;2022-12-18T04:37:33;-12.30;32.40
8709;DHT22;4391;48.678;9.280;2022-12-18T04:40:00;-12.30;32.00
8709;DHT22;4391;48.678;9.280;2022-12-18T04:42:27;-12.30;32.00
8709;DHT22;4391;48.678;9.280;2022-12-18T04:44:54;-12.40;34.70
8709;DHT22;4391;48.678;9.280;2022-12-18T04:47:21;-12.40;40.50
8709;DHT22;4391;48.678;9.280;2022-12-18T04:49:49;-12.50;47.80
8709;DHT22;4391;48.678;9.280;2022-12-18T04:52:15;-12.40;56.10
8709;DHT22;4391;48.678;9.280;2022-12-18T04:54:42;-12.40;59.70
8709;DHT22;4391;48.678;9.280;2022-12-18T04:57:09;-12.50;60.40
8709;DHT22;4391;48.678;9.280;2022-12-18T04:59:36;-12.50;61.30
8709;DHT22;4391;48.678;9.280;2022-12-18T05:02:03;-12.60;65.60
8709;DHT22;4391;48.678;9.280;2022-12-18T05:04:30;-12.60;70.30
8709;DHT22;4391;48.678;9.280;2022-12-18T05:06:58;-12.70;77.30
8709;DHT22;4391;48.678;9.280;2022-12-18T05:09:24;-12.60;84.10
8709;DHT22;4391;48.678;9.280;2022-12-18T05:11:51;-12.60;88.90
8709;DHT22;4391;48.678;9.280;2022-12-18T05:14:19;-12.60;88.90
8709;DHT22;4391;48.678;9.280;2022-12-18T05:16:46;-12.60;79.70
8709;DHT22;4391;48.678;9.280;2022-12-18T05:19:13;-12.60;73.60
8709;DHT22;4391;48.678;9.280;2022-12-18T05:21:39;-12.60;71.20
8709;DHT22;4391;48.678;9.280;2022-12-18T05:24:08;-12.70;68.60
8709;DHT22;4391;48.678;9.280;2022-12-18T05:26:34;-12.70;63.40
8709;DHT22;4391;48.678;9.280;2022-12-18T05:29:01;-12.80;61.30
8709;DHT22;4391;48.678;9.280;2022-12-18T05:31:28;-12.80;64.40
8709;DHT22;4391;48.678;9.280;2022-12-18T05:33:55;-12.80;63.10
8709;DHT22;4391;48.678;9.280;2022-12-18T05:36:22;-12.80;64.30
8709;DHT22;4391;48.678;9.280;2022-12-18T05:38:48;-12.90;65.40
8709;DHT22;4391;48.678;9.280;2022-12-18T05:41:17;-12.90;66.50
8709;DHT22;4391;48.678;9.280;2022-12-18T05:43:43;-12.90;70.50
8709;DHT22;4391;48.678;9.280;2022-12-18T05:46:12;-13.00;67.70
8709;DHT22;4391;48.678;9.280;2022-12-18T05:48:40;-13.00;71.00
8709;DHT22;4391;48.678;9.280;2022-12-18T05:51:09;-13.00;71.20
8709;DHT22;4391;48.678;9.280;2022-12-18T05:53:37;-13.10;72.90
8709;DHT22;4391;48.678;9.280;2022-12-18T05:56:05;-13.10;70.70
8709;DHT22;4391;48.678;9.280;2022-12-18T05:58:34;-13.10;67.20
8709;DHT22;4391;48.678;9.280;2022-12-18T06:01:06;-13.10;64.30
8709;DHT22;4391;48.678;9.280;2022-12-18T06:03:34;-13.20;58.60
8709;DHT22;4391;48.678;9.280;2022-12-18T06:06:00;-13.20;58.30
8709;DHT22;4391;48.678;9.280;2022-12-18T06:08:27;-13.30;59.00
8709;DHT22;4391;48.678;9.280;2022-12-18T06:10:54;-13.30;59.50
8709;DHT22;4391;48.678;9.280;2022-12-18T06:13:21;-13.30;62.00
8709;DHT22;4391;48.678;9.280;2022-12-18T06:15:49;-13.30;64.20
8709;DHT22;4391;48.678;9.280;2022-12-18T06:18:16;-13.30;63.10
8709;DHT22;4391;48.678;9.280;2022-12-18T06:20:43;-13.20;59.70
8709;DHT22;4391;48.678;9.280;2022-12-18T06:23:10;-13.30;51.90
8709;DHT22;4391;48.678;9.280;2022-12-18T06:25:38;-13.40;46.30
8709;DHT22;4391;48.678;9.280;2022-12-18T06:28:05;-13.40;44.70
8709;DHT22;4391;48.678;9.280;2022-12-18T06:30:32;-13.40;47.90
8709;DHT22;4391;48.678;9.280;2022-12-18T06:33:00;-13.40;50.90
8709;DHT22;4391;48.678;9.280;2022-12-18T06:35:27;-13.40;51.90
8709;DHT22;4391;48.678;9.280;2022-12-18T06:37:54;-13.40;56.50
8709;DHT22;4391;48.678;9.280;2022-12-18T06:40:21;-13.30;61.70
8709;DHT22;4391;48.678;9.280;2022-12-18T06:42:47;-13.40;58.00
8709;DHT22;4391;48.678;9.280;2022-12-18T06:45:15;-13.30;56.30
8709;DHT22;4391;48.678;9.280;2022-12-18T06:47:42;-13.40;55.70
8709;DHT22;4391;48.678;9.280;2022-12-18T06:50:11;-13.40;55.70
8709;DHT22;4391;48.678;9.280;2022-12-18T06:52:38;-13.40;55.00
8709;DHT22;4391;48.678;9.280;2022-12-18T06:55:09;-13.40;55.50
8709;DHT22;4391;48.678;9.280;2022-12-18T06:57:36;-13.50;54.40
8709;DHT22;4391;48.678;9.280;2022-12-18T07:00:05;-13.40;56.10
8709;DHT22;4391;48.678;9.280;2022-12-18T07:02:32;-13.50;53.80
8709;DHT22;4391;48.678;9.280;2022-12-18T07:04:59;-13.50;53.70
8709;DHT22;4391;48.678;9.280;2022-12-18T07:07:28;-13.40;56.00
8709;DHT22;4391;48.678;9.280;2022-12-18T07:09:54;-13.40;52.40
8709;DHT22;4391;48.678;9.280;2022-12-18T07:12:21;-13.40;52.50
8709;DHT22;4391;48.678;9.280;2022-12-18T07:14:48;-13.40;51.10
8709;DHT22;4391;48.678;9.280;2022-12-18T07:17:15;-13.40;48.50
8709;DHT22;4391;48.678;9.280;2022-12-18T07:19:42;-13.40;47.30
8709;DHT22;4391;48.678;9.280;2022-12-18T07:22:08;-13.40;48.40
8709;DHT22;4391;48.678;9.280;2022-12-18T07:24:36;-13.40;47.20
8709;DHT22;4391;48.678;9.280;2022-12-18T07:27:03;-13.40;47.50
8709;DHT22;4391;48.678;9.280;2022-12-18T07:29:30;-13.30;46.70
8709;DHT22;4391;48.678;9.280;2022-12-18T07:31:57;-13.30;46.40
8709;DHT22;4391;48.678;9.280;2022-12-18T07:34:24;-13.30;47.10
8709;DHT22;4391;48.678;9.280;2022-12-18T07:36:51;-13.10;58.20
8709;DHT22;4391;48.678;9.280;2022-12-18T07:39:17;-13.00;62.30
8709;DHT22;4391;48.678;9.280;2022-12-18T07:41:45;-13.00;62.00
8709;DHT22;4391;48.678;9.280;2022-12-18T07:44:32;-13.00;60.30
8709;DHT22;4391;48.678;9.280;2022-12-18T07:46:59;-12.90;58.40
8709;DHT22;4391;48.678;9.280;2022-12-18T07:49:26;-12.80;56.90
8709;DHT22;4391;48.678;9.280;2022-12-18T07:51:54;-12.70;46.00
8709;DHT22;4391;48.678;9.280;2022-12-18T07:54:21;-12.60;36.70
8709;DHT22;4391;48.678;9.280;2022-12-18T07:56:50;-12.60;27.60
8709;DHT22;4391;48.678;9.280;2022-12-18T07:59:16;-12.50;21.20
8709;DHT22;4391;48.678;9.280;2022-12-18T08:01:43;-12.50;15.00
8709;DHT22;4391;48.678;9.280;2022-12-18T08:04:10;-12.40;10.90
8709;DHT22;4391;48.678;9.280;2022-12-18T08:06:37;-12.40;5.10
8709;DHT22;4391;48.678;9.280;2022-12-18T08:09:04;-12.30;1.00
8709;DHT22;4391;48.678;9.280;2022-12-18T08:11:31;-12.10;1.00
8709;DHT22;4391;48.678;9.280;2022-12-18T08:13:59;-12.10;1.00
8709;DHT22;4391;48.678;9.280;2022-12-18T08:16:26;-12.10;1.00
8709;DHT22;4391;48.678;9.280;2022-12-18T08:18:53;-12.00;1.00
8709;DHT22;4391;48.678;9.280;2022-12-18T08:21:23;-11.90;1.00
8709;DHT22;4391;48.678;9.280;2022-12-18T08:23:52;-11.80;1.00
8709;DHT22;4391;48.678;9.280;2022-12-18T08:26:19;-11.70;1.00
8709;DHT22;4391;48.678;9.280;2022-12-18T08:28:46;-11.60;1.00
8709;DHT22;4391;48.678;9.280;2022-12-18T08:31:15;-11.40;1.00
8709;DHT22;4391;48.678;9.280;2022-12-18T08:33:42;-11.30;1.00
8709;DHT22;4391;48.678;9.280;2022-12-18T08:36:09;-11.10;1.00
8709;DHT22;4391;48.678;9.280;2022-12-18T08:38:36;-10.80;1.00
8709;DHT22;4391;48.678;9.280;2022-12-18T08:41:05;-10.60;1.00
8709;DHT22;4391;48.678;9.280;2022-12-18T08:43:33;-10.30;1.00
8709;DHT22;4391;48.678;9.280;2022-12-18T08:46:35;-9.80;1.00
8709;DHT22;4391;48.678;9.280;2022-12-18T08:49:03;-9.20;99.90
8709;DHT22;4391;48.678;9.280;2022-12-18T08:51:30;-8.70;1.00
8709;DHT22;4391;48.678;9.280;2022-12-18T08:53:57;-8.30;99.90
8709;DHT22;4391;48.678;9.280;2022-12-18T08:56:24;-8.00;99.90
8709;DHT22;4391;48.678;9.280;2022-12-18T08:58:52;-7.80;99.90
8709;DHT22;4391;48.678;9.280;2022-12-18T09:01:20;-7.60;1.00
8709;DHT22;4391;48.678;9.280;2022-12-18T09:03:48;-7.40;1.00
8709;DHT22;4391;48.678;9.280;2022-12-18T09:06:16;-7.20;1.00
8709;DHT22;4391;48.678;9.280;2022-12-18T09:08:44;-7.00;99.90
8709;DHT22;4391;48.678;9.280;2022-12-18T09:11:19;-6.90;99.90
8709;DHT22;4391;48.678;9.280;2022-12-18T09:13:46;-6.50;99.90
8709;DHT22;4391;48.678;9.280;2022-12-18T09:16:14;-6.30;69.40
8709;DHT22;4391;48.678;9.280;2022-12-18T09:18:41;-6.00;1.00
8709;DHT22;4391;48.678;9.280;2022-12-18T09:21:11;-5.80;1.00
8709;DHT22;4391;48.678;9.280;2022-12-18T09:23:41;-5.50;1.00
8709;DHT22;4391;48.678;9.280;2022-12-18T09:26:10;-5.30;1.00
8709;DHT22;4391;48.678;9.280;2022-12-18T09:28:37;-5.10;1.00
8709;DHT22;4391;48.678;9.280;2022-12-18T09:31:06;-5.00;1.00
8709;DHT22;4391;48.678;9.280;2022-12-18T09:33:33;-4.90;1.00
8709;DHT22;4391;48.678;9.280;2022-12-18T09:36:01;-4.60;1.00
8709;DHT22;4391;48.678;9.280;2022-12-18T09:38:30;-4.40;1.00
8709;DHT22;4391;48.678;9.280;2022-12-18T09:41:00;-4.20;1.00
8709;DHT22;4391;48.678;9.280;2022-12-18T09:43:35;-4.00;1.00
8709;DHT22;4391;48.678;9.280;2022-12-18T09:46:06;-3.90;1.00
8709;DHT22;4391;48.678;9.280;2022-12-18T09:48:35;-3.80;1.00
8709;DHT22;4391;48.678;9.280;2022-12-18T09:51:08;-3.70;1.00
8709;DHT22;4391;48.678;9.280;2022-12-18T09:53:40;-3.70;1.00
8709;DHT22;4391;48.678;9.280;2022-12-18T09:56:15;-3.40;1.00
8709;DHT22;4391;48.678;9.280;2022-12-18T09:58:47;-3.10;1.00
8709;DHT22;4391;48.678;9.280;2022-12-18T10:01:19;-2.90;1.00
8709;DHT22;4391;48.678;9.280;2022-12-18T10:03:49;-2.60;99.90
8709;DHT22;4391;48.678;9.280;2022-12-18T10:06:20;-2.50;99.90
8709;DHT22;4391;48.678;9.280;2022-12-18T10:08:56;-2.30;99.90
8709;DHT22;4391;48.678;9.280;2022-12-18T10:11:34;-2.00;99.90
8709;DHT22;4391;48.678;9.280;2022-12-18T10:14:09;-1.80;99.90
8709;DHT22;4391;48.678;9.280;2022-12-18T10:16:43;-1.80;99.90
8709;DHT22;4391;48.678;9.280;2022-12-18T10:19:25;-1.60;99.90
8709;DHT22;4391;48.678;9.280;2022-12-18T10:22:00;-1.20;99.90
8709;DHT22;4391;48.678;9.280;2022-12-18T10:24:33;-0.90;99.90
8709;DHT22;4391;48.678;9.280;2022-12-18T10:27:11;-0.50;99.90
8709;DHT22;4391;48.678;9.280;2022-12-18T10:29:39;-0.30;99.90
8709;DHT22;4391;48.678;9.280;2022-12-18T10:32:07;0.20;99.90
8709;DHT22;4391;48.678;9.280;2022-12-18T10:34:35;0.30;99.90
8709;DHT22;4391;48.678;9.280;2022-12-18T10:37:06;0.60;99.90
8709;DHT22;4391;48.678;9.280;2022-12-18T10:39:37;0.80;99.90
8709;DHT22;4391;48.678;9.280;2022-12-18T10:42:11;1.00;99.90
8709;DHT22;4391;48.678;9.280;2022-12-18T10:44:40;1.40;99.90
8709;DHT22;4391;48.678;9.280;2022-12-18T10:47:14;1.40;99.90
8709;DHT22;4391;48.678;9.280;2022-12-18T10:49:47;1.60;99.90
8709;DHT22;4391;48.678;9.280;2022-12-18T10:52:17;2.00;99.90
8709;DHT22;4391;48.678;9.280;2022-12-18T10:54:51;2.10;99.90
8709;DHT22;4391;48.678;9.280;2022-12-18T10:57:30;2.40;99.90
8709;DHT22;4391;48.678;9.280;2022-12-18T10:59:59;2.50;99.90
8709;DHT22;4391;48.678;9.280;2022-12-18T11:02:33;2.70;99.90
8709;DHT22;4391;48.678;9.280;2022-12-18T11:05:00;3.00;99.90
8709;DHT22;4391;48.678;9.280;2022-12-18T11:07:47;2.80;99.90
8709;DHT22;4391;48.678;9.280;2022-12-18T11:10:18;3.10;99.90
8709;DHT22;4391;48.678;9.280;2022-12-18T11:12:45;3.10;99.90
8709;DHT22;4391;48.678;9.280;2022-12-18T11:15:19;3.20;99.90
8709;DHT22;4391;48.678;9.280;2022-12-18T11:17:48;3.50;99.90
8709;DHT22;4391;48.678;9.280;2022-12-18T11:20:23;3.90;99.90
8709;DHT22;4391;48.678;9.280;2022-12-18T11:22:57;4.30;99.90
8709;DHT22;4391;48.678;9.280;2022-12-18T11:25:29;4.40;99.90
8709;DHT22;4391;48.678;9.280;2022-12-18T11:27:57;4.70;99.90
8709;DHT22;4391;48.678;9.280;2022-12-18T11:30:27;5.00;99.90
8709;DHT22;4391;48.678;9.280;2022-12-18T11:32:58;5.20;99.90
8709;DHT22;4391;48.678;9.280;2022-12-18T11:35:37;5.20;99.90
8709;DHT22;4391;48.678;9.280;2022-12-18T11:38:10;5.30;99.90
8709;DHT22;4391;48.678;9.280;2022-12-18T11:40:44;5.50;99.90
8709;DHT22;4391;48.678;9.280;2022-12-18T11:43:16;5.60;99.90
8709;DHT22;4391;48.678;9.280;2022-12-18T11:45:49;5.80;99.90
8709;DHT22;4391;48.678;9.280;2022-12-18T11:48:21;5.70;99.90
8709;DHT22;4391;48.678;9.280;2022-12-18T11:50:50;5.60;99.90
8709;DHT22;4391;48.678;9.280;2022-12-18T11:53:18;5.80;99.90
8709;DHT22;4391;48.678;9.280;2022-12-18T11:55:54;6.10;99.90
8709;DHT22;4391;48.678;9.280;2022-12-18T11:58:37;5.70;99.90
8709;DHT22;4391;48.678;9.280;2022-12-18T12:01:20;5.80;99.90
8709;DHT22;4391;48.678;9.280;2022-12-18T12:04:19;5.80;99.90
8709;DHT22;4391;48.678;9.280;2022-12-18T12:06:54;5.90;99.90
8709;DHT22;4391;48.678;9.280;2022-12-18T12:09:32;6.20;99.90
8709;DHT22;4391;48.678;9.280;2022-12-18T12:12:23;6.20;99.90
8709;DHT22;4391;48.678;9.280;2022-12-18T12:14:57;5.80;99.90
8709;DHT22;4391;48.678;9.280;2022-12-18T12:17:37;5.80;99.90
8709;DHT22;4391;48.678;9.280;2022-12-18T12:20:12;5.60;99.90
8709;DHT22;4391;48.678;9.280;2022-12-18T12:22:46;5.70;99.90
8709;DHT22;4391;48.678;9.280;2022-12-18T12:25:25;5.50;99.90
8709;DHT22;4391;48.678;9.280;2022-12-18T12:28:06;5.70;99.90
8709;DHT22;4391;48.678;9.280;2022-12-18T12:30:45;5.50;99.90
8709;DHT22;4391;48.678;9.280;2022-12-18T12:33:22;5.70;99.90
8709;DHT22;4391;48.678;9.280;2022-12-18T12:36:00;5.50;99.90
8709;DHT22;4391;48.678;9.280;2022-12-18T12:38:35;5.30;99.90
8709;DHT22;4391;48.678;9.280;2022-12-18T12:41:06;4.80;99.90
8709;DHT22;4391;48.678;9.280;2022-12-18T12:43:58;4.60;99.90
8709;DHT22;4391;48.678;9.280;2022-12-18T12:46:25;4.10;99.90
8709;DHT22;4391;48.678;9.280;2022-12-18T12:48:54;3.80;99.90
8709;DHT22;4391;48.678;9.280;2022-12-18T12:51:25;3.80;99.90
8709;DHT22;4391;48.678;9.280;2022-12-18T12:53:54;3.50;99.90
8709;DHT22;4391;48.678;9.280;2022-12-18T12:56:25;3.50;99.90
8709;DHT22;4391;48.678;9.280;2022-12-18T12:59:05;3.50;99.90
8709;DHT22;4391;48.678;9.280;2022-12-18T13:01:40;3.30;99.90
8709;DHT22;4391;48.678;9.280;2022-12-18T13:04:18;3.20;99.90
8709;DHT22;4391;48.678;9.280;2022-12-18T13:06:52;2.90;99.90
8709;DHT22;4391;48.678;9.280;2022-12-18T13:09:20;2.80;99.90
8709;DHT22;4391;48.678;9.280;2022-12-18T13:11:47;2.80;99.90
8709;DHT22;4391;48.678;9.280;2022-12-18T13:14:35;2.80;99.90
8709;DHT22;4391;48.678;9.280;2022-12-18T13:17:32;2.30;99.90
8709;DHT22;4391;48.678;9.280;2022-12-18T13:20:08;2.40;99.90
8709;DHT22;4391;48.678;9.280;2022-12-18T13:22:38;2.10;99.90
8709;DHT22;4391;48.678;9.280;2022-12-18T13:28:09;1.70;99.90
8709;DHT22;4391;48.678;9.280;2022-12-18T13:30:59;1.40;99.90
8709;DHT22;4391;48.678;9.280;2022-12-18T13:33:47;1.00;1.00
8709;DHT22;4391;48.678;9.280;2022-12-18T13:36:26;1.00;1.00
8709;DHT22;4391;48.678;9.280;2022-12-18T13:39:23;0.70;1.00
8709;DHT22;4391;48.678;9.280;2022-12-18T13:41:52;0.70;1.00
8709;DHT22;4391;48.678;9.280;2022-12-18T13:44:27;0.50;1.00
8709;DHT22;4391;48.678;9.280;2022-12-18T13:46:59;0.30;1.00
8709;DHT22;4391;48.678;9.280;2022-12-18T13:49:35;0.30;1.00
8709;DHT22;4391;48.678;9.280;2022-12-18T13:52:03;0.30;16.40
8709;DHT22;4391;48.678;9.280;2022-12-18T13:54:42;0.20;60.70
8709;DHT22;4391;48.678;9.280;2022-12-18T13:57:26;0.30;47.40
8709;DHT22;4391;48.678;9.280;2022-12-18T13:59:54;0.30;6.50
8709;DHT22;4391;48.678;9.280;2022-12-18T14:02:24;0.30;52.30
8709;DHT22;4391;48.678;9.280;2022-12-18T14:04:52;0.20;99.90
8709;DHT22;4391;48.678;9.280;2022-12-18T14:07:21;0.30;99.90
8709;DHT22;4391;48.678;9.280;2022-12-18T14:09:51;0.10;99.90
8709;DHT22;4391;48.678;9.280;2022-12-18T14:12:21;0.10;99.90
8709;DHT22;4391;48.678;9.280;2022-12-18T14:15:15;-0.10;99.90
8709;DHT22;4391;48.678;9.280;2022-12-18T14:17:49;-0.20;99.90
8709;DHT22;4391;48.678;9.280;2022-12-18T14:20:17;-0.40;1.00
8709;DHT22;4391;48.678;9.280;2022-12-18T14:22:45;-0.50;75.30
8709;DHT22;4391;48.678;9.280;2022-12-18T14:25:18;-0.70;99.90
8709;DHT22;4391;48.678;9.280;2022-12-18T14:27:48;-0.80;99.90
8709;DHT22;4391;48.678;9.280;2022-12-18T14:30:30;-0.90;1.00
8709;DHT22;4391;48.678;9.280;2022-12-18T14:33:09;-1.00;1.00
8709;DHT22;4391;48.678;9.280;2022-12-18T14:35:37;-1.10;99.90
8709;DHT22;4391;48.678;9.280;2022-12-18T14:38:23;-1.20;99.90
8709;DHT22;4391;48.678;9.280;2022-12-18T14:41:00;-1.20;1.00
8709;DHT22;4391;48.678;9.280;2022-12-18T14:43:29;-1.40;6.00
8709;DHT22;4391;48.678;9.280;2022-12-18T14:45:56;-1.60;1.00
8709;DHT22;4391;48.678;9.280;2022-12-18T14:48:37;-1.70;1.00
8709;DHT22;4391;48.678;9.280;2022-12-18T14:51:06;-1.80;99.90
8709;DHT22;4391;48.678;9.280;2022-12-18T14:53:36;-2.00;99.90
8709;DHT22;4391;48.678;9.280;2022-12-18T14:56:15;-2.30;1.00
8709;DHT22;4391;48.678;9.280;2022-12-18T14:58:46;-2.40;1.00
8709;DHT22;4391;48.678;9.280;2022-12-18T15:01:25;-2.50;1.00
8709;DHT22;4391;48.678;9.280;2022-12-18T15:03:55;-2.60;1.00
8709;DHT22;4391;48.678;9.280;2022-12-18T15:06:27;-2.80;1.00
8709;DHT22;4391;48.678;9.280;2022-12-18T15:08:54;-3.00;1.00
8709;DHT22;4391;48.678;9.280;2022-12-18T15:11:26;-3.20;1.00
8709;DHT22;4391;48.678;9.280;2022-12-18T15:13:53;-3.40;1.00
8709;DHT22;4391;48.678;9.280;2022-12-18T15:16:20;-3.60;1.00
8709;DHT22;4391;48.678;9.280;2022-12-18T15:18:47;-3.70;1.00
8709;DHT22;4391;48.678;9.280;2022-12-18T15:21:18;-3.90;1.00
8709;DHT22;4391;48.678;9.280;2022-12-18T15:23:49;-4.00;4.30
8709;DHT22;4391;48.678;9.280;2022-12-18T15:26:18;-4.10;8.70
8709;DHT22;4391;48.678;9.280;2022-12-18T15:28:47;-4.20;14.40
8709;DHT22;4391;48.678;9.280;2022-12-18T15:31:29;-4.40;19.30
8709;DHT22;4391;48.678;9.280;2022-12-18T15:34:11;-4.50;24.40
8709;DHT22;4391;48.678;9.280;2022-12-18T15:36:40;-4.60;26.20
8709;DHT22;4391;48.678;9.280;2022-12-18T15:39:11;-4.70;43.90
8709;DHT22;4391;48.678;9.280;2022-12-18T15:41:38;-4.80;46.50
8709;DHT22;4391;48.678;9.280;2022-12-18T15:44:22;-4.90;48.10
8709;DHT22;4391;48.678;9.280;2022-12-18T15:46:48;-4.90;55.90
8709;DHT22;4391;48.678;9.280;2022-12-18T15:49:15;-5.00;64.30
8709;DHT22;4391;48.678;9.280;2022-12-18T15:51:43;-5.10;81.50
8709;DHT22;4391;48.678;9.280;2022-12-18T15:54:13;-5.10;93.40
8709;DHT22;4391;48.678;9.280;2022-12-18T15:56:42;-5.20;97.20
8709;DHT22;4391;48.678;9.280;2022-12-18T15:59:26;-5.30;95.40
8709;DHT22;4391;48.678;9.280;2022-12-18T16:01:53;-5.40;95.90
8709;DHT22;4391;48.678;9.280;2022-12-18T16:04:21;-5.50;96.10
8709;DHT22;4391;48.678;9.280;2022-12-18T16:06:50;-5.60;96.90
8709;DHT22;4391;48.678;9.280;2022-12-18T16:09:18;-5.60;99.90
8709;DHT22;4391;48.678;9.280;2022-12-18T16:11:45;-5.70;99.90
8709;DHT22;4391;48.678;9.280;2022-12-18T16:14:16;-5.70;99.90
8709;DHT22;4391;48.678;9.280;2022-12-18T16:16:44;-5.70;99.90
8709;DHT22;4391;48.678;9.280;2022-12-18T16:19:11;-5.80;99.90
8709;DHT22;4391;48.678;9.280;2022-12-18T16:21:38;-5.80;99.90
8709;DHT22;4391;48.678;9.280;2022-12-18T16:24:13;-5.80;99.90
8709;DHT22;4391;48.678;9.280;2022-12-18T16:26:41;-5.80;99.90
8709;DHT22;4391;48.678;9.280;2022-12-18T16:29:08;-5.80;99.90